.
WxDataArchive / Data Records for 2009-08-08
2009-08-07 August 2009 2009-08-09

Data Records for Saturday, 08 August 2009

Time	Temp	Chill	HIndex	Humid	Dewpt	 Wind 	HiWind	WindDir	Rain 	Barom 
-----	----	-----	------	-----	-----	------	------	-------	-----	----- 
00:00	65.5	65.5	65.5	83	60.2	0	0	---	0.00	30.131 
00:05	65.5	65.5	65.5	82	59.9	0	1	68	0.00	30.131 
00:10	65.3	65.3	65.3	82	59.7	0	2	68	0.00	30.131 
00:15	65.3	65.3	65.3	82	59.7	0	3	68	0.00	30.129 
00:20	65.3	65.3	65.3	82	59.7	0	0	---	0.00	30.129 
00:25	65.3	65.3	65.3	82	59.7	0	0	---	0.00	30.129 
00:30	65.3	65.3	65.3	83	60.0	0	1	68	0.00	30.136 
00:35	65.2	65.2	65.2	83	59.9	0	0	---	0.00	30.136 
00:40	65.0	65.0	65.0	83	59.7	0	1	68	0.00	30.136 
00:45	65.0	65.0	65.0	83	59.7	0	2	68	0.00	30.135 
00:50	65.2	65.2	65.2	83	59.9	0	1	68	0.00	30.135 
00:55	65.2	65.2	65.2	82	59.6	0	1	68	0.00	30.135 
01:00	65.3	65.3	65.3	83	60.0	0	1	68	0.00	30.143 
01:05	65.3	65.3	65.3	82	59.7	0	1	68	0.00	30.143 
01:10	65.3	65.3	65.3	82	59.7	0	1	68	0.00	30.143 
01:15	65.3	65.3	65.3	82	59.7	0	2	68	0.00	30.143 
01:20	65.3	65.3	65.3	82	59.7	0	1	68	0.00	30.143 
01:25	65.3	65.3	65.3	82	59.7	0	1	68	0.00	30.143 
01:30	65.5	65.5	65.5	82	59.9	0	1	68	0.00	30.140 
01:35	65.5	65.5	65.5	83	60.2	0	2	68	0.00	30.140 
01:40	65.5	65.5	65.5	83	60.2	0	2	68	0.00	30.140 
01:45	65.3	65.3	65.3	83	60.0	0	2	68	0.00	30.134 
01:50	65.3	65.3	65.3	84	60.3	0	2	68	0.00	30.134 
01:55	65.2	65.2	65.2	84	60.2	0	1	68	0.00	30.134 
02:00	65.2	65.2	65.2	84	60.2	0	0	---	0.00	30.130 
02:05	65.2	65.2	65.2	84	60.2	0	0	---	0.00	30.130 
02:10	65.0	65.0	65.0	84	60.0	0	1	68	0.00	30.130 
02:15	65.0	65.0	65.0	84	60.0	0	1	68	0.00	30.127 
02:20	65.0	65.0	65.0	84	60.0	0	1	68	0.00	30.127 
02:25	65.0	65.0	65.0	84	60.0	0	1	68	0.00	30.127 
02:30	65.0	65.0	65.0	84	60.0	0	2	68	0.00	30.129 
02:35	65.0	65.0	65.0	84	60.0	0	1	68	0.00	30.129 
02:40	65.0	65.0	65.0	84	60.0	0	1	68	0.00	30.129 
02:45	65.2	65.2	65.2	84	60.2	0	2	68	0.00	30.126 
02:50	65.2	65.2	65.2	84	60.2	1	3	68	0.00	30.126 
02:55	65.2	65.2	65.2	84	60.2	0	2	68	0.00	30.126 
03:00	65.0	65.0	65.0	84	60.0	0	1	68	0.00	30.123 
03:05	65.0	65.0	65.0	84	60.0	1	2	68	0.00	30.123 
03:10	65.0	65.0	65.0	84	60.0	1	3	68	0.00	30.123 
03:15	64.8	64.8	64.8	85	60.2	0	2	68	0.00	30.127 
03:20	64.8	64.8	64.8	85	60.2	1	3	68	0.00	30.127 
03:25	64.7	64.7	64.7	86	60.4	0	2	68	0.00	30.127 
03:30	64.5	64.5	64.5	86	60.2	0	3	68	0.00	30.119 
03:35	64.5	64.5	64.5	85	59.9	0	1	68	0.00	30.119 
03:40	64.5	64.5	64.5	85	59.9	1	3	68	0.00	30.119 
03:45	64.5	64.5	64.5	85	59.9	0	2	68	0.00	30.117 
03:50	64.5	64.5	64.5	85	59.9	0	2	68	0.00	30.117 
03:55	64.5	64.5	64.5	85	59.9	0	2	68	0.00	30.117 
04:00	64.5	64.5	64.5	85	59.9	0	2	68	0.00	30.113 
04:05	64.5	64.5	64.5	84	59.6	0	4	68	0.00	30.113 
04:10	64.5	64.5	64.5	84	59.6	0	1	68	0.00	30.113 
04:15	64.5	64.5	64.5	84	59.6	1	2	68	0.00	30.113 
04:20	64.7	64.7	64.7	84	59.7	0	1	68	0.00	30.113 
04:25	64.7	64.7	64.7	83	59.4	1	3	68	0.00	30.113 
04:30	64.7	64.7	64.7	83	59.4	0	2	68	0.00	30.114 
04:35	64.8	64.8	64.8	84	59.8	0	2	68	0.00	30.114 
04:40	64.8	64.8	64.8	84	59.8	0	1	68	0.00	30.114 
04:45	64.7	64.7	64.7	84	59.7	0	2	68	0.00	30.119 
04:50	64.7	64.7	64.7	84	59.7	0	1	68	0.00	30.119 
04:55	64.7	64.7	64.7	83	59.4	0	2	68	0.00	30.119 
05:00	64.7	64.7	64.7	84	59.7	0	1	68	0.00	30.126 
05:05	64.7	64.7	64.7	84	59.7	0	1	68	0.00	30.126 
05:10	64.7	64.7	64.7	85	60.1	0	1	68	0.00	30.126 
05:15	64.5	64.5	64.5	85	59.9	0	0	---	0.00	30.119 
05:20	64.5	64.5	64.5	85	59.9	0	1	68	0.01	30.119 
05:25	64.3	64.3	64.3	86	60.0	0	1	68	0.00	30.119 
05:30	64.2	64.2	64.2	87	60.2	0	2	68	0.00	30.118 
05:35	64.0	64.0	64.0	88	60.4	0	2	68	0.01	30.118 
05:40	63.9	63.9	63.9	88	60.3	0	1	68	0.00	30.118 
05:45	63.7	63.7	63.7	88	60.1	0	2	68	0.00	30.113 
05:50	63.5	63.5	63.5	88	59.9	1	3	68	0.00	30.113 
05:55	63.5	63.5	63.5	88	59.9	0	2	68	0.00	30.113 
06:00	63.5	63.5	63.5	88	59.9	0	3	68	0.00	30.107 
06:05	63.5	63.5	63.5	88	59.9	0	2	68	0.00	30.107 
06:10	63.5	63.5	63.5	88	59.9	0	2	68	0.00	30.107 
06:15	63.5	63.5	63.5	88	59.9	0	2	90	0.00	30.107 
06:20	63.5	63.5	63.5	88	59.9	0	2	90	0.00	30.107 
06:25	63.5	63.5	63.5	88	59.9	0	2	135	0.00	30.107 
06:30	63.5	63.5	63.5	88	59.9	0	1	135	0.00	30.099 
06:35	63.5	63.5	63.5	88	59.9	0	3	135	0.00	30.099 
06:40	63.5	63.5	63.5	88	59.9	0	3	90	0.00	30.099 
06:45	63.5	63.5	63.5	88	59.9	1	3	112	0.00	30.099 
06:50	63.7	63.7	63.7	87	59.8	0	3	90	0.00	30.099 
06:55	63.7	63.7	63.7	87	59.8	0	3	90	0.00	30.099 
07:00	63.9	63.9	63.9	86	59.6	0	2	90	0.00	30.097 
07:05	63.9	63.9	63.9	86	59.6	0	2	90	0.00	30.097 
07:10	64.0	64.0	64.0	86	59.7	0	2	90	0.00	30.097 
07:15	64.2	64.2	64.2	86	59.9	0	1	90	0.00	30.103 
07:20	64.2	64.2	64.2	86	59.9	0	1	90	0.00	30.103 
07:25	64.3	64.3	64.3	86	60.0	0	1	90	0.00	30.103 
07:30	64.3	64.3	64.3	85	59.7	1	3	90	0.00	30.095 
07:35	64.5	64.5	64.5	84	59.6	0	2	90	0.00	30.095 
07:40	64.7	64.7	64.7	84	59.7	1	3	90	0.00	30.095 
07:45	65.0	65.0	65.0	83	59.7	0	2	90	0.00	30.090 
07:50	65.2	65.2	65.2	83	59.9	1	3	90	0.00	30.090 
07:55	65.5	65.5	65.5	82	59.9	1	3	90	0.00	30.090 
08:00	65.8	65.8	65.8	81	59.8	1	2	112	0.00	30.087 
08:05	66.1	66.1	66.1	81	60.1	1	3	90	0.00	30.087 
08:10	66.4	66.4	66.4	80	60.0	1	3	90	0.00	30.087 
08:15	66.6	66.6	66.6	80	60.2	1	3	90	0.00	30.086 
08:20	66.9	66.9	66.9	79	60.2	0	2	90	0.00	30.086 
08:25	67.1	67.1	67.1	79	60.4	1	3	158	0.00	30.086 
08:30	67.3	67.3	67.3	79	60.6	1	3	68	0.00	30.082 
08:35	67.4	67.4	67.4	79	60.7	0	2	68	0.00	30.082 
08:40	67.6	67.6	67.6	78	60.5	0	2	90	0.00	30.082 
08:45	67.9	67.9	67.9	78	60.8	0	3	90	0.00	30.084 
08:50	68.1	68.1	68.1	78	61.0	1	3	90	0.00	30.084 
08:55	68.4	68.4	68.4	77	60.9	1	4	90	0.00	30.084 
09:00	68.6	68.6	68.6	77	61.1	0	2	90	0.00	30.079 
09:05	68.9	68.9	68.9	77	61.4	1	2	90	0.00	30.079 
09:10	69.1	69.1	69.1	77	61.6	0	1	90	0.00	30.079 
09:15	69.3	69.3	69.3	77	61.8	0	2	90	0.00	30.082 
09:20	69.4	69.4	69.4	77	61.9	1	3	90	0.00	30.082 
09:25	69.6	69.6	69.6	77	62.1	0	2	90	0.00	30.082 
09:30	69.8	69.8	69.8	77	62.3	1	4	90	0.00	30.082 
09:35	70.1	70.1	70.1	77	62.5	0	2	90	0.00	30.082 
09:40	70.3	70.3	70.3	77	62.7	1	4	90	0.00	30.082 
09:45	70.4	70.4	70.4	77	62.8	0	2	315	0.00	30.084 
09:50	70.6	70.6	70.6	76	62.7	1	3	90	0.00	30.084 
09:55	70.8	70.8	70.8	77	63.2	0	2	90	0.00	30.084 
10:00	70.6	70.6	70.6	77	63.0	0	2	248	0.00	30.088 
10:05	70.8	70.8	70.8	77	63.2	0	1	248	0.00	30.088 
10:10	70.8	70.8	70.8	77	63.2	0	1	248	0.00	30.088 
10:15	70.8	70.8	70.8	78	63.6	0	2	248	0.00	30.089 
10:20	70.8	70.8	70.8	78	63.6	0	1	248	0.00	30.089 
10:25	70.8	70.8	70.8	79	64.0	0	1	248	0.00	30.089 
10:30	71.1	71.1	71.1	79	64.2	0	1	248	0.00	30.085 
10:35	71.5	71.5	71.5	79	64.6	0	1	248	0.00	30.085 
10:40	71.8	71.8	71.8	78	64.6	0	2	112	0.00	30.085 
10:45	72.3	72.3	72.3	78	65.0	0	2	112	0.00	30.081 
10:50	72.5	72.5	72.5	77	64.9	0	1	135	0.00	30.081 
10:55	72.7	72.7	72.7	77	65.1	1	2	135	0.00	30.081 
11:00	72.7	72.7	72.7	77	65.1	0	1	112	0.00	30.079 
11:05	72.7	72.7	72.7	78	65.4	0	2	112	0.00	30.079 
11:10	72.8	72.8	72.8	78	65.5	1	3	112	0.00	30.079 
11:15	72.8	72.8	72.8	78	65.5	1	2	112	0.00	30.077 
11:20	73.0	73.0	73.0	78	65.7	1	3	112	0.00	30.077 
11:25	73.2	73.2	73.2	79	66.3	0	1	112	0.00	30.077 
11:30	73.2	73.2	73.2	78	65.9	0	2	0	0.00	30.080 
11:35	73.5	73.5	73.5	78	66.2	1	4	0	0.00	30.080 
11:40	73.9	73.9	73.9	78	66.6	0	3	90	0.00	30.080 
11:45	74.4	74.4	74.4	77	66.7	1	4	90	0.00	30.076 
11:50	74.7	74.7	74.7	77	67.0	0	3	90	0.00	30.076 
11:55	74.9	74.9	74.9	75	66.4	1	3	112	0.00	30.076 
12:00	75.1	75.1	76.1	77	67.4	0	2	112	0.00	30.073 
12:05	75.1	75.1	76.2	76	67.0	0	3	112	0.00	30.073 
12:10	74.9	74.9	74.9	77	67.2	0	1	112	0.00	30.073 
12:15	74.9	74.9	74.9	77	67.2	0	2	112	0.00	30.062 
12:20	75.1	75.1	76.1	77	67.4	1	2	112	0.00	30.062 
12:25	75.3	75.3	76.2	78	68.0	0	2	112	0.00	30.062 
12:30	75.4	75.4	76.4	77	67.7	0	3	112	0.00	30.061 
12:35	75.6	75.6	76.7	77	67.9	0	3	135	0.00	30.061 
12:40	75.6	75.6	76.7	77	67.9	0	3	68	0.00	30.061 
12:45	75.6	75.6	76.6	78	68.2	1	3	68	0.00	30.049 
12:50	75.6	75.6	76.6	78	68.2	0	2	90	0.00	30.049 
12:55	75.6	75.6	76.6	78	68.2	0	2	68	0.00	30.049 
13:00	75.8	75.8	76.9	78	68.4	1	3	68	0.00	30.047 
13:05	75.6	75.6	76.4	80	69.0	0	2	68	0.00	30.047 
13:10	75.6	75.6	76.4	80	69.0	1	3	68	0.00	30.047 
13:15	75.3	75.3	75.9	81	69.1	1	2	68	0.00	30.038 
13:20	75.3	75.3	75.9	81	69.1	1	3	90	0.00	30.038 
13:25	75.3	75.3	75.8	82	69.4	0	4	90	0.00	30.038 
13:30	75.3	75.3	75.6	83	69.8	0	2	68	0.00	30.043 
13:35	75.4	75.4	75.7	84	70.2	0	2	0	0.00	30.043 
13:40	75.6	75.6	76.0	84	70.4	0	2	0	0.01	30.043 
13:45	75.6	75.6	75.9	85	70.8	0	2	338	0.00	30.046 
13:50	75.4	75.4	75.4	86	70.9	0	2	338	0.00	30.046 
13:55	75.4	75.4	75.3	87	71.2	0	2	292	0.00	30.046 
14:00	75.8	75.8	75.9	88	72.0	0	2	270	0.00	30.046 
14:05	76.1	76.1	76.6	87	71.9	0	2	270	0.01	30.046 
14:10	76.5	76.5	77.3	87	72.3	0	1	270	0.00	30.046 
14:15	76.7	76.7	77.7	87	72.5	0	0	---	0.00	30.046 
14:20	77.0	77.0	78.4	85	72.1	0	2	270	0.00	30.046 
14:25	77.2	77.2	78.8	84	72.0	0	1	270	0.00	30.046 
14:30	77.6	77.6	79.6	83	72.0	0	2	270	0.00	30.046 
14:35	78.1	78.1	80.6	83	72.5	0	2	270	0.00	30.046 
14:40	78.5	78.5	81.3	82	72.5	1	3	112	0.00	30.046 
14:45	79.0	79.0	82.2	80	72.3	1	4	90	0.00	30.026 
14:50	79.4	79.4	83.0	80	72.7	0	2	90	0.00	30.026 
14:55	79.8	79.8	83.4	77	71.9	1	3	90	0.00	30.026 
15:00	80.3	80.3	84.4	77	72.4	1	4	158	0.00	30.021 
15:05	80.7	80.7	85.2	77	72.8	1	3	270	0.00	30.021 
15:10	81.2	81.2	85.9	75	72.5	1	5	68	0.00	30.021 
15:15	81.8	81.8	86.9	74	72.7	1	3	292	0.00	30.010 
15:20	82.4	82.4	88.2	74	73.3	1	2	338	0.00	30.010 
15:25	83.2	83.2	89.4	72	73.2	2	4	68	0.00	30.010 
15:30	83.4	83.4	89.5	71	73.0	2	5	292	0.00	29.993 
15:35	83.6	83.6	89.9	71	73.2	1	5	338	0.00	29.993 
15:40	83.4	83.4	89.5	71	73.0	1	5	338	0.00	29.993 
15:45	83.8	83.8	90.7	72	73.8	2	6	292	0.00	29.985 
15:50	84.5	84.5	92.3	72	74.5	1	6	112	0.00	29.985 
15:55	84.9	84.9	92.1	69	73.6	2	4	270	0.00	29.985 
16:00	85.3	85.3	92.6	68	73.5	2	9	45	0.00	29.977 
16:05	85.7	85.7	93.5	68	73.9	2	6	68	0.00	29.977 
16:10	85.9	85.9	94.0	68	74.1	2	5	22	0.00	29.977 
16:15	86.1	86.1	94.4	68	74.3	2	5	270	0.00	29.970 
16:20	86.1	86.1	93.6	66	73.4	2	5	270	0.00	29.970 
16:25	86.5	86.5	93.7	64	72.8	3	10	270	0.00	29.970 
16:30	86.5	86.5	92.8	62	71.9	4	12	292	0.00	29.959 
16:35	87.0	87.0	94.3	63	72.8	2	7	248	0.00	29.959 
16:40	87.2	87.2	92.7	58	70.6	4	12	292	0.00	29.959 
16:45	87.4	87.4	92.2	56	69.7	4	10	270	0.00	29.956 
16:50	87.4	87.4	91.9	55	69.2	4	10	270	0.00	29.956 
16:55	87.4	87.4	91.9	55	69.2	4	11	270	0.00	29.956 
17:00	87.6	87.6	92.2	55	69.4	5	13	270	0.00	29.945 
17:05	87.8	87.8	92.6	55	69.6	4	9	270	0.00	29.945 
17:10	87.8	87.8	92.6	55	69.6	3	6	270	0.00	29.945 
17:15	87.4	87.4	92.2	56	69.7	4	10	270	0.00	29.947 
17:20	86.5	86.5	91.3	58	69.9	4	10	270	0.00	29.947 
17:25	86.1	86.1	90.6	58	69.6	3	11	248	0.00	29.947 
17:30	85.9	85.9	90.6	59	69.9	3	11	270	0.00	29.946 
17:35	86.3	86.3	91.3	59	70.2	4	10	270	0.00	29.946 
17:40	86.5	86.5	91.7	59	70.4	3	7	270	0.00	29.946 
17:45	86.5	86.5	92.1	60	70.9	2	5	270	0.00	29.945 
17:50	86.7	86.7	92.5	60	71.1	3	7	270	0.00	29.945 
17:55	86.5	86.5	92.1	60	70.9	4	11	270	0.00	29.945 
18:00	86.5	86.5	92.1	60	70.9	2	5	270	0.00	29.940 
18:05	86.5	86.5	92.1	60	70.9	2	7	270	0.00	29.940 
18:10	86.3	86.3	91.7	60	70.7	3	8	270	0.00	29.940 
18:15	86.3	86.3	91.7	60	70.7	4	9	270	0.00	29.930 
18:20	86.1	86.1	91.7	61	71.0	4	13	270	0.00	29.930 
18:25	86.1	86.1	91.7	61	71.0	4	10	248	0.00	29.930 
18:30	85.9	85.9	91.6	62	71.3	2	5	270	0.00	29.929 
18:35	85.9	85.9	91.3	61	70.9	3	6	248	0.00	29.929 
18:40	85.9	85.9	91.3	61	70.9	3	6	270	0.00	29.929 
18:45	85.7	85.7	90.9	61	70.7	3	7	270	0.00	29.931 
18:50	85.7	85.7	90.9	61	70.7	1	5	270	0.00	29.931 
18:55	85.5	85.5	90.5	61	70.5	3	6	270	0.00	29.931 
19:00	85.5	85.5	90.8	62	71.0	2	6	270	0.00	29.932 
19:05	85.7	85.7	90.9	61	70.7	2	9	270	0.00	29.932 
19:10	85.5	85.5	90.5	61	70.5	3	9	270	0.00	29.932 
19:15	85.3	85.3	90.5	62	70.8	2	9	270	0.00	29.935 
19:20	85.3	85.3	90.5	62	70.8	1	4	292	0.00	29.935 
19:25	85.3	85.3	90.5	62	70.8	2	6	270	0.00	29.935 
19:30	85.3	85.3	90.1	61	70.3	3	6	270	0.00	29.933 
19:35	85.1	85.1	89.8	61	70.1	3	7	270	0.00	29.933 
19:40	85.1	85.1	89.8	61	70.1	3	9	270	0.00	29.933 
19:45	84.9	84.9	89.7	62	70.4	2	5	270	0.00	29.931 
19:50	84.9	84.9	89.7	62	70.4	2	7	270	0.00	29.931 
19:55	84.7	84.7	89.3	62	70.2	1	4	248	0.00	29.931 
20:00	84.5	84.5	89.0	62	70.0	2	7	248	0.00	29.932 
20:05	84.3	84.3	88.9	63	70.3	2	6	270	0.00	29.932 
20:10	84.3	84.3	88.9	63	70.3	2	7	315	0.00	29.932 
20:15	84.1	84.1	88.5	63	70.1	2	5	270	0.00	29.934 
20:20	84.0	84.0	88.6	64	70.5	1	6	270	0.00	29.934 
20:25	83.8	83.8	88.3	64	70.3	2	6	270	0.00	29.934 
20:30	83.8	83.8	88.3	64	70.3	2	7	270	0.00	29.943 
20:35	83.6	83.6	88.2	65	70.6	1	7	270	0.00	29.943 
20:40	83.4	83.4	87.8	65	70.4	2	7	315	0.00	29.943 
20:45	83.2	83.2	87.5	65	70.2	1	3	270	0.00	29.951 
20:50	83.0	83.0	87.3	66	70.4	1	4	270	0.00	29.951 
20:55	83.0	83.0	87.3	66	70.4	1	3	292	0.00	29.951 
21:00	82.8	82.8	87.2	67	70.7	1	4	248	0.00	29.958 
21:05	82.6	82.6	86.9	67	70.5	1	3	248	0.00	29.958 
21:10	82.6	82.6	86.9	67	70.5	1	4	248	0.00	29.958 
21:15	82.6	82.6	86.9	67	70.5	1	4	270	0.00	29.959 
21:20	82.4	82.4	86.5	67	70.3	1	3	270	0.00	29.959 
21:25	82.2	82.2	86.4	68	70.6	1	5	248	0.00	29.959 
21:30	82.0	82.0	86.0	68	70.4	1	7	270	0.00	29.962 
21:35	82.0	82.0	86.0	68	70.4	1	4	270	0.00	29.962 
21:40	82.0	82.0	86.0	68	70.4	0	2	292	0.00	29.962 
21:45	81.8	81.8	85.9	69	70.6	1	3	292	0.00	29.971 
21:50	81.6	81.6	85.5	69	70.4	1	4	270	0.00	29.971 
21:55	81.4	81.4	85.1	69	70.2	1	4	270	0.00	29.971 
22:00	81.2	81.2	84.8	69	70.0	1	5	315	0.00	29.975 
22:05	81.2	81.2	85.0	70	70.5	0	2	292	0.00	29.975 
22:10	80.9	80.9	84.6	71	70.6	0	3	292	0.00	29.975 
22:15	80.7	80.7	84.3	71	70.4	1	3	292	0.00	29.985 
22:20	80.7	80.7	84.3	71	70.4	1	3	248	0.00	29.985 
22:25	80.5	80.5	84.1	72	70.6	1	3	248	0.00	29.985 
22:30	80.5	80.5	84.2	73	71.0	0	2	270	0.00	29.989 
22:35	80.3	80.3	83.9	73	70.8	0	2	248	0.00	29.989 
22:40	80.1	80.1	83.5	73	70.6	0	3	248	0.00	29.989 
22:45	80.1	80.1	83.5	73	70.6	0	3	270	0.00	29.992 
22:50	79.9	79.9	83.3	74	70.8	1	5	248	0.00	29.992 
22:55	79.8	79.8	83.1	74	70.8	0	1	248	0.00	29.992 
23:00	79.8	79.8	83.2	75	71.1	1	3	248	0.00	29.993 
23:05	79.6	79.6	82.8	75	71.0	0	2	248	0.00	29.993 
23:10	79.4	79.4	82.6	76	71.2	0	2	248	0.00	29.993 
23:15	79.2	79.2	82.2	76	71.0	0	4	248	0.00	29.994 
23:20	79.2	79.2	82.2	76	71.0	1	3	292	0.00	29.994 
23:25	79.2	79.2	82.2	76	71.0	1	2	292	0.00	29.994 
23:30	79.0	79.0	82.0	77	71.2	1	3	270	0.00	29.997 
23:35	79.0	79.0	82.0	77	71.2	1	3	248	0.00	29.997 
23:40	79.0	79.0	82.0	77	71.2	1	4	248	0.00	29.997 
23:45	79.0	79.0	82.0	77	71.2	1	4	248	0.00	30.003 
23:50	79.0	79.0	82.0	77	71.2	1	5	270	0.00	30.003 
23:55	78.8	78.8	81.6	77	71.0	1	5	270	0.00	30.003 

CoCoRaHS
IN-AL-39
A2 Web Hosting
Creative Commons License
GoDaddy
search engine by freefind advanced

loaded 2018-11-15 18:10:18 • last modified 2010-11-18 10:43:29
Privacy PolicyDisclaimer
• wx.awcolley.com is powered by PmWiki v.2002016 •
• all content (unless otherwise noted) © 2018 A W Colley